sensor_id;sensor_type;location;lat;lon;timestamp;P1;durP1;ratioP1;P2;durP2;ratioP2
69629;SDS011;56857;52.212;5.496;2023-02-15T00:01:49;35.40;;;20.15;;
69629;SDS011;56857;52.212;5.496;2023-02-15T00:04:15;32.95;;;19.95;;
69629;SDS011;56857;52.212;5.496;2023-02-15T00:06:43;33.35;;;19.52;;
69629;SDS011;56857;52.212;5.496;2023-02-15T00:09:09;38.47;;;21.42;;
69629;SDS011;56857;52.212;5.496;2023-02-15T00:11:35;33.55;;;20.23;;
69629;SDS011;56857;52.212;5.496;2023-02-15T00:14:01;40.92;;;20.92;;
69629;SDS011;56857;52.212;5.496;2023-02-15T00:16:26;37.17;;;20.27;;
69629;SDS011;56857;52.212;5.496;2023-02-15T00:18:52;35.35;;;18.80;;
69629;SDS011;56857;52.212;5.496;2023-02-15T00:21:17;34.70;;;19.83;;
69629;SDS011;56857;52.212;5.496;2023-02-15T00:23:42;36.10;;;20.58;;
69629;SDS011;56857;52.212;5.496;2023-02-15T00:26:11;34.53;;;19.52;;
69629;SDS011;56857;52.212;5.496;2023-02-15T00:28:37;41.60;;;20.52;;
69629;SDS011;56857;52.212;5.496;2023-02-15T00:31:04;35.05;;;20.35;;
69629;SDS011;56857;52.212;5.496;2023-02-15T00:33:30;36.55;;;19.85;;
69629;SDS011;56857;52.212;5.496;2023-02-15T00:35:57;34.08;;;19.73;;
69629;SDS011;56857;52.212;5.496;2023-02-15T00:38:22;38.22;;;22.25;;
69629;SDS011;56857;52.212;5.496;2023-02-15T00:40:57;36.92;;;20.13;;
69629;SDS011;56857;52.212;5.496;2023-02-15T00:43:24;33.35;;;20.30;;
69629;SDS011;56857;52.212;5.496;2023-02-15T00:45:50;35.65;;;20.45;;
69629;SDS011;56857;52.212;5.496;2023-02-15T00:48:16;37.42;;;21.00;;
69629;SDS011;56857;52.212;5.496;2023-02-15T00:50:44;35.65;;;20.70;;
69629;SDS011;56857;52.212;5.496;2023-02-15T00:53:10;39.38;;;20.77;;
69629;SDS011;56857;52.212;5.496;2023-02-15T00:55:36;36.83;;;20.45;;
69629;SDS011;56857;52.212;5.496;2023-02-15T00:58:01;34.75;;;20.20;;
69629;SDS011;56857;52.212;5.496;2023-02-15T01:00:26;36.65;;;20.42;;
69629;SDS011;56857;52.212;5.496;2023-02-15T01:02:52;36.08;;;22.08;;
69629;SDS011;56857;52.212;5.496;2023-02-15T01:05:17;37.05;;;20.88;;
69629;SDS011;56857;52.212;5.496;2023-02-15T01:07:43;35.35;;;20.80;;
69629;SDS011;56857;52.212;5.496;2023-02-15T01:10:09;33.97;;;20.17;;
69629;SDS011;56857;52.212;5.496;2023-02-15T01:12:34;38.25;;;21.05;;
69629;SDS011;56857;52.212;5.496;2023-02-15T01:14:59;36.60;;;21.13;;
69629;SDS011;56857;52.212;5.496;2023-02-15T01:17:25;36.63;;;20.55;;
69629;SDS011;56857;52.212;5.496;2023-02-15T01:19:50;36.72;;;21.17;;
69629;SDS011;56857;52.212;5.496;2023-02-15T01:22:15;36.50;;;21.30;;
69629;SDS011;56857;52.212;5.496;2023-02-15T01:24:41;34.08;;;18.85;;
69629;SDS011;56857;52.212;5.496;2023-02-15T01:27:09;35.65;;;20.05;;
69629;SDS011;56857;52.212;5.496;2023-02-15T01:29:34;35.90;;;20.75;;
69629;SDS011;56857;52.212;5.496;2023-02-15T01:31:59;34.78;;;19.92;;
69629;SDS011;56857;52.212;5.496;2023-02-15T01:34:25;37.17;;;21.30;;
69629;SDS011;56857;52.212;5.496;2023-02-15T01:36:50;35.47;;;19.90;;
69629;SDS011;56857;52.212;5.496;2023-02-15T01:39:17;35.87;;;20.77;;
69629;SDS011;56857;52.212;5.496;2023-02-15T01:41:42;33.90;;;20.00;;
69629;SDS011;56857;52.212;5.496;2023-02-15T01:47:10;38.92;;;22.08;;
69629;SDS011;56857;52.212;5.496;2023-02-15T01:49:41;35.05;;;19.67;;
69629;SDS011;56857;52.212;5.496;2023-02-15T01:52:10;36.17;;;20.88;;
69629;SDS011;56857;52.212;5.496;2023-02-15T01:54:39;38.22;;;20.85;;
69629;SDS011;56857;52.212;5.496;2023-02-15T01:57:09;34.35;;;20.48;;
69629;SDS011;56857;52.212;5.496;2023-02-15T01:59:42;33.17;;;20.40;;
69629;SDS011;56857;52.212;5.496;2023-02-15T02:02:11;33.15;;;20.67;;
69629;SDS011;56857;52.212;5.496;2023-02-15T02:04:43;37.00;;;21.38;;
69629;SDS011;56857;52.212;5.496;2023-02-15T02:07:14;33.15;;;19.15;;
69629;SDS011;56857;52.212;5.496;2023-02-15T02:09:42;35.03;;;18.65;;
69629;SDS011;56857;52.212;5.496;2023-02-15T02:12:09;35.10;;;20.42;;
69629;SDS011;56857;52.212;5.496;2023-02-15T02:14:35;38.20;;;20.80;;
69629;SDS011;56857;52.212;5.496;2023-02-15T02:28:20;33.90;;;19.15;;
69629;SDS011;56857;52.212;5.496;2023-02-15T02:31:14;35.97;;;20.00;;
69629;SDS011;56857;52.212;5.496;2023-02-15T02:36:49;34.70;;;19.67;;
69629;SDS011;56857;52.212;5.496;2023-02-15T02:39:37;31.92;;;18.48;;
69629;SDS011;56857;52.212;5.496;2023-02-15T02:44:49;32.67;;;18.55;;
69629;SDS011;56857;52.212;5.496;2023-02-15T02:47:21;42.50;;;19.60;;
69629;SDS011;56857;52.212;5.496;2023-02-15T02:50:12;31.70;;;17.65;;
69629;SDS011;56857;52.212;5.496;2023-02-15T02:52:44;34.42;;;17.77;;
69629;SDS011;56857;52.212;5.496;2023-02-15T02:57:53;36.20;;;18.75;;
69629;SDS011;56857;52.212;5.496;2023-02-15T03:00:20;32.88;;;17.58;;
69629;SDS011;56857;52.212;5.496;2023-02-15T03:02:48;35.42;;;18.38;;
69629;SDS011;56857;52.212;5.496;2023-02-15T03:05:21;36.45;;;19.30;;
69629;SDS011;56857;52.212;5.496;2023-02-15T03:07:51;34.50;;;18.58;;
69629;SDS011;56857;52.212;5.496;2023-02-15T03:10:19;40.10;;;20.42;;
69629;SDS011;56857;52.212;5.496;2023-02-15T03:12:47;33.58;;;18.48;;
69629;SDS011;56857;52.212;5.496;2023-02-15T03:15:16;34.58;;;18.95;;
69629;SDS011;56857;52.212;5.496;2023-02-15T03:17:47;38.17;;;19.05;;
69629;SDS011;56857;52.212;5.496;2023-02-15T03:20:18;41.10;;;19.55;;
69629;SDS011;56857;52.212;5.496;2023-02-15T03:22:50;35.70;;;18.65;;
69629;SDS011;56857;52.212;5.496;2023-02-15T03:25:33;34.42;;;18.40;;
69629;SDS011;56857;52.212;5.496;2023-02-15T03:28:03;33.78;;;17.30;;
69629;SDS011;56857;52.212;5.496;2023-02-15T03:30:34;35.75;;;18.75;;
69629;SDS011;56857;52.212;5.496;2023-02-15T03:33:01;36.03;;;17.23;;
69629;SDS011;56857;52.212;5.496;2023-02-15T03:35:52;36.75;;;19.15;;
69629;SDS011;56857;52.212;5.496;2023-02-15T03:38:25;38.17;;;19.30;;
69629;SDS011;56857;52.212;5.496;2023-02-15T03:40:58;39.63;;;19.80;;
69629;SDS011;56857;52.212;5.496;2023-02-15T03:49:17;33.25;;;17.73;;
69629;SDS011;56857;52.212;5.496;2023-02-15T03:51:48;36.38;;;18.05;;
69629;SDS011;56857;52.212;5.496;2023-02-15T03:56:53;31.60;;;16.45;;
69629;SDS011;56857;52.212;5.496;2023-02-15T03:59:19;35.63;;;18.23;;
69629;SDS011;56857;52.212;5.496;2023-02-15T04:04:47;33.85;;;17.80;;
69629;SDS011;56857;52.212;5.496;2023-02-15T04:07:14;36.38;;;18.75;;
69629;SDS011;56857;52.212;5.496;2023-02-15T04:09:39;36.10;;;18.85;;
69629;SDS011;56857;52.212;5.496;2023-02-15T04:12:05;38.85;;;17.75;;
69629;SDS011;56857;52.212;5.496;2023-02-15T04:14:32;35.60;;;18.40;;
69629;SDS011;56857;52.212;5.496;2023-02-15T04:16:57;36.78;;;19.80;;
69629;SDS011;56857;52.212;5.496;2023-02-15T04:19:23;35.17;;;17.73;;
69629;SDS011;56857;52.212;5.496;2023-02-15T04:21:48;36.15;;;18.80;;
69629;SDS011;56857;52.212;5.496;2023-02-15T04:24:13;39.97;;;18.10;;
69629;SDS011;56857;52.212;5.496;2023-02-15T04:26:40;31.52;;;18.27;;
69629;SDS011;56857;52.212;5.496;2023-02-15T04:29:05;37.10;;;17.50;;
69629;SDS011;56857;52.212;5.496;2023-02-15T04:31:30;35.70;;;17.63;;
69629;SDS011;56857;52.212;5.496;2023-02-15T04:33:56;33.83;;;17.48;;
69629;SDS011;56857;52.212;5.496;2023-02-15T04:36:21;33.75;;;18.27;;
69629;SDS011;56857;52.212;5.496;2023-02-15T04:38:46;35.27;;;17.03;;
69629;SDS011;56857;52.212;5.496;2023-02-15T04:41:12;34.03;;;18.92;;
69629;SDS011;56857;52.212;5.496;2023-02-15T04:43:37;34.63;;;17.58;;
69629;SDS011;56857;52.212;5.496;2023-02-15T04:46:02;32.50;;;17.77;;
69629;SDS011;56857;52.212;5.496;2023-02-15T04:48:27;34.27;;;18.70;;
69629;SDS011;56857;52.212;5.496;2023-02-15T04:50:53;37.13;;;18.58;;
69629;SDS011;56857;52.212;5.496;2023-02-15T04:53:18;36.70;;;19.73;;
69629;SDS011;56857;52.212;5.496;2023-02-15T04:55:43;35.53;;;18.55;;
69629;SDS011;56857;52.212;5.496;2023-02-15T04:58:09;37.85;;;17.20;;
69629;SDS011;56857;52.212;5.496;2023-02-15T05:00:34;33.67;;;18.33;;
69629;SDS011;56857;52.212;5.496;2023-02-15T05:03:00;36.23;;;17.93;;
69629;SDS011;56857;52.212;5.496;2023-02-15T05:05:25;34.85;;;17.73;;
69629;SDS011;56857;52.212;5.496;2023-02-15T05:07:51;35.95;;;17.77;;
69629;SDS011;56857;52.212;5.496;2023-02-15T05:12:41;31.20;;;15.93;;
69629;SDS011;56857;52.212;5.496;2023-02-15T05:15:07;33.05;;;17.95;;
69629;SDS011;56857;52.212;5.496;2023-02-15T05:17:33;37.08;;;18.88;;
69629;SDS011;56857;52.212;5.496;2023-02-15T05:19:58;34.15;;;18.17;;
69629;SDS011;56857;52.212;5.496;2023-02-15T05:22:23;34.80;;;18.70;;
69629;SDS011;56857;52.212;5.496;2023-02-15T05:24:49;37.72;;;18.98;;
69629;SDS011;56857;52.212;5.496;2023-02-15T05:27:14;37.65;;;19.40;;
69629;SDS011;56857;52.212;5.496;2023-02-15T05:29:39;34.42;;;18.63;;
69629;SDS011;56857;52.212;5.496;2023-02-15T05:32:05;34.38;;;18.30;;
69629;SDS011;56857;52.212;5.496;2023-02-15T05:34:30;35.25;;;17.33;;
69629;SDS011;56857;52.212;5.496;2023-02-15T05:36:55;34.28;;;17.48;;
69629;SDS011;56857;52.212;5.496;2023-02-15T05:39:20;34.93;;;17.50;;
69629;SDS011;56857;52.212;5.496;2023-02-15T05:41:46;32.88;;;18.05;;
69629;SDS011;56857;52.212;5.496;2023-02-15T05:44:11;34.63;;;17.60;;
69629;SDS011;56857;52.212;5.496;2023-02-15T05:46:36;34.13;;;18.63;;
69629;SDS011;56857;52.212;5.496;2023-02-15T05:49:02;41.50;;;19.02;;
69629;SDS011;56857;52.212;5.496;2023-02-15T05:51:28;35.42;;;17.50;;
69629;SDS011;56857;52.212;5.496;2023-02-15T05:53:53;34.35;;;17.35;;
69629;SDS011;56857;52.212;5.496;2023-02-15T05:56:18;32.97;;;16.60;;
69629;SDS011;56857;52.212;5.496;2023-02-15T05:58:43;39.67;;;19.87;;
69629;SDS011;56857;52.212;5.496;2023-02-15T06:01:09;37.72;;;18.85;;
69629;SDS011;56857;52.212;5.496;2023-02-15T06:03:35;34.97;;;18.77;;
69629;SDS011;56857;52.212;5.496;2023-02-15T06:06:01;44.28;;;18.80;;
69629;SDS011;56857;52.212;5.496;2023-02-15T06:08:26;38.65;;;17.83;;
69629;SDS011;56857;52.212;5.496;2023-02-15T06:10:51;36.10;;;17.98;;
69629;SDS011;56857;52.212;5.496;2023-02-15T06:13:17;41.07;;;19.67;;
69629;SDS011;56857;52.212;5.496;2023-02-15T06:15:42;37.55;;;18.67;;
69629;SDS011;56857;52.212;5.496;2023-02-15T06:18:07;33.53;;;17.90;;
69629;SDS011;56857;52.212;5.496;2023-02-15T06:20:32;33.08;;;18.50;;
69629;SDS011;56857;52.212;5.496;2023-02-15T06:22:58;37.92;;;18.75;;
69629;SDS011;56857;52.212;5.496;2023-02-15T06:25:23;33.20;;;17.73;;
69629;SDS011;56857;52.212;5.496;2023-02-15T06:27:48;34.20;;;18.67;;
69629;SDS011;56857;52.212;5.496;2023-02-15T06:30:14;33.28;;;18.08;;
69629;SDS011;56857;52.212;5.496;2023-02-15T06:32:39;34.65;;;19.38;;
69629;SDS011;56857;52.212;5.496;2023-02-15T06:35:05;40.60;;;20.10;;
69629;SDS011;56857;52.212;5.496;2023-02-15T06:39:56;38.92;;;17.65;;
69629;SDS011;56857;52.212;5.496;2023-02-15T06:42:21;37.08;;;18.33;;
69629;SDS011;56857;52.212;5.496;2023-02-15T06:44:47;36.03;;;18.05;;
69629;SDS011;56857;52.212;5.496;2023-02-15T06:49:38;34.80;;;17.90;;
69629;SDS011;56857;52.212;5.496;2023-02-15T06:52:04;35.90;;;17.58;;
69629;SDS011;56857;52.212;5.496;2023-02-15T06:54:30;33.85;;;18.52;;
69629;SDS011;56857;52.212;5.496;2023-02-15T06:56:56;40.25;;;19.67;;
69629;SDS011;56857;52.212;5.496;2023-02-15T06:59:21;35.17;;;19.25;;
69629;SDS011;56857;52.212;5.496;2023-02-15T07:01:47;36.65;;;18.98;;
69629;SDS011;56857;52.212;5.496;2023-02-15T07:06:37;35.50;;;18.13;;
69629;SDS011;56857;52.212;5.496;2023-02-15T07:09:03;41.40;;;19.92;;
69629;SDS011;56857;52.212;5.496;2023-02-15T07:11:29;47.00;;;19.75;;
69629;SDS011;56857;52.212;5.496;2023-02-15T07:13:55;35.70;;;19.95;;
69629;SDS011;56857;52.212;5.496;2023-02-15T07:16:21;34.60;;;18.83;;
69629;SDS011;56857;52.212;5.496;2023-02-15T07:18:46;37.03;;;18.65;;
69629;SDS011;56857;52.212;5.496;2023-02-15T07:21:11;37.28;;;19.35;;
69629;SDS011;56857;52.212;5.496;2023-02-15T07:23:37;37.88;;;20.45;;
69629;SDS011;56857;52.212;5.496;2023-02-15T07:26:04;36.10;;;19.00;;
69629;SDS011;56857;52.212;5.496;2023-02-15T07:28:32;38.75;;;20.35;;
69629;SDS011;56857;52.212;5.496;2023-02-15T07:30:58;41.33;;;21.00;;
69629;SDS011;56857;52.212;5.496;2023-02-15T07:33:27;38.92;;;19.95;;
69629;SDS011;56857;52.212;5.496;2023-02-15T07:35:56;36.22;;;19.83;;
69629;SDS011;56857;52.212;5.496;2023-02-15T07:38:23;38.47;;;19.38;;
69629;SDS011;56857;52.212;5.496;2023-02-15T07:40:50;40.70;;;20.95;;
69629;SDS011;56857;52.212;5.496;2023-02-15T07:43:15;39.78;;;19.05;;
69629;SDS011;56857;52.212;5.496;2023-02-15T07:45:41;38.95;;;19.58;;
69629;SDS011;56857;52.212;5.496;2023-02-15T07:48:06;43.90;;;21.38;;
69629;SDS011;56857;52.212;5.496;2023-02-15T07:50:32;38.05;;;21.15;;
69629;SDS011;56857;52.212;5.496;2023-02-15T07:52:57;39.30;;;20.30;;
69629;SDS011;56857;52.212;5.496;2023-02-15T07:55:23;40.08;;;21.55;;
69629;SDS011;56857;52.212;5.496;2023-02-15T07:57:49;45.53;;;22.90;;
69629;SDS011;56857;52.212;5.496;2023-02-15T08:00:16;38.20;;;19.70;;
69629;SDS011;56857;52.212;5.496;2023-02-15T08:02:49;41.53;;;21.17;;
69629;SDS011;56857;52.212;5.496;2023-02-15T08:05:16;38.53;;;20.02;;
69629;SDS011;56857;52.212;5.496;2023-02-15T08:07:41;40.65;;;21.77;;
69629;SDS011;56857;52.212;5.496;2023-02-15T08:12:32;39.80;;;20.52;;
69629;SDS011;56857;52.212;5.496;2023-02-15T08:17:23;37.93;;;19.87;;
69629;SDS011;56857;52.212;5.496;2023-02-15T08:19:48;45.95;;;21.05;;
69629;SDS011;56857;52.212;5.496;2023-02-15T08:24:41;44.92;;;20.85;;
69629;SDS011;56857;52.212;5.496;2023-02-15T08:27:08;42.47;;;21.80;;
69629;SDS011;56857;52.212;5.496;2023-02-15T08:29:37;41.47;;;21.35;;
69629;SDS011;56857;52.212;5.496;2023-02-15T08:32:04;42.63;;;22.15;;
69629;SDS011;56857;52.212;5.496;2023-02-15T08:34:33;41.47;;;21.38;;
69629;SDS011;56857;52.212;5.496;2023-02-15T08:37:01;43.13;;;21.65;;
69629;SDS011;56857;52.212;5.496;2023-02-15T08:39:26;47.03;;;23.58;;
69629;SDS011;56857;52.212;5.496;2023-02-15T08:41:51;48.35;;;24.25;;
69629;SDS011;56857;52.212;5.496;2023-02-15T08:44:17;43.55;;;24.20;;
69629;SDS011;56857;52.212;5.496;2023-02-15T08:46:44;44.03;;;22.90;;
69629;SDS011;56857;52.212;5.496;2023-02-15T08:49:12;48.42;;;24.92;;
69629;SDS011;56857;52.212;5.496;2023-02-15T08:51:40;45.40;;;24.13;;
69629;SDS011;56857;52.212;5.496;2023-02-15T08:54:07;49.63;;;24.67;;
69629;SDS011;56857;52.212;5.496;2023-02-15T08:56:44;42.10;;;24.52;;
69629;SDS011;56857;52.212;5.496;2023-02-15T08:59:19;47.85;;;25.52;;
69629;SDS011;56857;52.212;5.496;2023-02-15T09:01:48;50.25;;;25.42;;
69629;SDS011;56857;52.212;5.496;2023-02-15T09:04:16;49.45;;;25.63;;
69629;SDS011;56857;52.212;5.496;2023-02-15T09:06:42;50.58;;;26.95;;
69629;SDS011;56857;52.212;5.496;2023-02-15T09:09:08;47.20;;;26.52;;
69629;SDS011;56857;52.212;5.496;2023-02-15T09:11:39;46.88;;;24.10;;
69629;SDS011;56857;52.212;5.496;2023-02-15T09:14:08;55.25;;;27.23;;
69629;SDS011;56857;52.212;5.496;2023-02-15T09:16:37;46.72;;;24.55;;
69629;SDS011;56857;52.212;5.496;2023-02-15T09:19:03;51.15;;;25.25;;
69629;SDS011;56857;52.212;5.496;2023-02-15T09:21:36;45.60;;;24.02;;
69629;SDS011;56857;52.212;5.496;2023-02-15T09:24:03;45.65;;;24.80;;
69629;SDS011;56857;52.212;5.496;2023-02-15T09:26:31;48.05;;;26.48;;
69629;SDS011;56857;52.212;5.496;2023-02-15T09:28:59;46.15;;;24.98;;
69629;SDS011;56857;52.212;5.496;2023-02-15T09:31:26;47.53;;;26.20;;
69629;SDS011;56857;52.212;5.496;2023-02-15T09:33:53;47.90;;;25.10;;
69629;SDS011;56857;52.212;5.496;2023-02-15T09:36:29;44.78;;;24.33;;
69629;SDS011;56857;52.212;5.496;2023-02-15T09:39:18;46.10;;;25.40;;
69629;SDS011;56857;52.212;5.496;2023-02-15T09:49:48;48.45;;;26.35;;
69629;SDS011;56857;52.212;5.496;2023-02-15T10:05:44;46.28;;;26.25;;
69629;SDS011;56857;52.212;5.496;2023-02-15T10:14:01;45.45;;;25.92;;
69629;SDS011;56857;52.212;5.496;2023-02-15T10:19:32;47.08;;;24.00;;
69629;SDS011;56857;52.212;5.496;2023-02-15T10:27:45;43.95;;;24.02;;
69629;SDS011;56857;52.212;5.496;2023-02-15T10:35:32;43.15;;;25.13;;
69629;SDS011;56857;52.212;5.496;2023-02-15T10:43:32;41.88;;;23.52;;
69629;SDS011;56857;52.212;5.496;2023-02-15T10:49:18;45.70;;;24.50;;
69629;SDS011;56857;52.212;5.496;2023-02-15T10:54:45;45.65;;;24.38;;
69629;SDS011;56857;52.212;5.496;2023-02-15T10:57:17;45.55;;;25.60;;
69629;SDS011;56857;52.212;5.496;2023-02-15T11:05:30;44.15;;;23.75;;
69629;SDS011;56857;52.212;5.496;2023-02-15T11:07:59;40.25;;;22.65;;
69629;SDS011;56857;52.212;5.496;2023-02-15T11:13:29;39.95;;;22.35;;
69629;SDS011;56857;52.212;5.496;2023-02-15T11:18:37;41.05;;;23.25;;
69629;SDS011;56857;52.212;5.496;2023-02-15T11:21:09;38.83;;;22.85;;
69629;SDS011;56857;52.212;5.496;2023-02-15T11:23:40;42.72;;;23.35;;
69629;SDS011;56857;52.212;5.496;2023-02-15T11:26:31;41.53;;;23.15;;
69629;SDS011;56857;52.212;5.496;2023-02-15T11:31:26;42.35;;;23.00;;
69629;SDS011;56857;52.212;5.496;2023-02-15T11:34:10;43.90;;;23.48;;
69629;SDS011;56857;52.212;5.496;2023-02-15T11:36:43;40.13;;;21.95;;
69629;SDS011;56857;52.212;5.496;2023-02-15T11:39:09;45.33;;;24.38;;
69629;SDS011;56857;52.212;5.496;2023-02-15T11:41:41;40.95;;;22.42;;
69629;SDS011;56857;52.212;5.496;2023-02-15T11:46:41;41.33;;;23.40;;
69629;SDS011;56857;52.212;5.496;2023-02-15T11:49:27;44.55;;;23.55;;
69629;SDS011;56857;52.212;5.496;2023-02-15T11:52:00;41.10;;;22.67;;
69629;SDS011;56857;52.212;5.496;2023-02-15T11:54:31;42.75;;;22.77;;
69629;SDS011;56857;52.212;5.496;2023-02-15T11:57:02;43.40;;;22.98;;
69629;SDS011;56857;52.212;5.496;2023-02-15T11:59:37;43.15;;;23.05;;
69629;SDS011;56857;52.212;5.496;2023-02-15T12:02:15;42.72;;;22.65;;
69629;SDS011;56857;52.212;5.496;2023-02-15T12:07:43;50.35;;;24.33;;
69629;SDS011;56857;52.212;5.496;2023-02-15T12:10:25;42.05;;;22.75;;
69629;SDS011;56857;52.212;5.496;2023-02-15T12:13:08;42.67;;;23.08;;
69629;SDS011;56857;52.212;5.496;2023-02-15T12:15:40;44.33;;;24.42;;
69629;SDS011;56857;52.212;5.496;2023-02-15T12:18:43;42.13;;;23.63;;
69629;SDS011;56857;52.212;5.496;2023-02-15T12:21:02;44.17;;;23.25;;
69629;SDS011;56857;52.212;5.496;2023-02-15T12:23:30;41.42;;;23.98;;
69629;SDS011;56857;52.212;5.496;2023-02-15T12:25:58;42.58;;;24.05;;
69629;SDS011;56857;52.212;5.496;2023-02-15T12:28:34;40.22;;;22.83;;
69629;SDS011;56857;52.212;5.496;2023-02-15T12:31:02;42.28;;;23.33;;
69629;SDS011;56857;52.212;5.496;2023-02-15T12:33:35;46.72;;;24.20;;
69629;SDS011;56857;52.212;5.496;2023-02-15T12:39:26;43.53;;;23.20;;
69629;SDS011;56857;52.212;5.496;2023-02-15T12:44:25;44.10;;;24.20;;
69629;SDS011;56857;52.212;5.496;2023-02-15T12:47:03;44.03;;;24.42;;
69629;SDS011;56857;52.212;5.496;2023-02-15T12:50:08;43.33;;;22.88;;
69629;SDS011;56857;52.212;5.496;2023-02-15T12:53:05;45.47;;;24.35;;
69629;SDS011;56857;52.212;5.496;2023-02-15T12:55:38;41.60;;;24.17;;
69629;SDS011;56857;52.212;5.496;2023-02-15T12:58:16;43.25;;;24.58;;
69629;SDS011;56857;52.212;5.496;2023-02-15T13:00:42;42.20;;;22.88;;
69629;SDS011;56857;52.212;5.496;2023-02-15T13:03:15;47.65;;;23.95;;
69629;SDS011;56857;52.212;5.496;2023-02-15T13:05:46;40.63;;;22.70;;
69629;SDS011;56857;52.212;5.496;2023-02-15T13:08:16;39.88;;;23.52;;
69629;SDS011;56857;52.212;5.496;2023-02-15T13:13:20;44.33;;;23.55;;
69629;SDS011;56857;52.212;5.496;2023-02-15T13:15:49;42.42;;;23.05;;
69629;SDS011;56857;52.212;5.496;2023-02-15T13:18:23;47.38;;;23.48;;
69629;SDS011;56857;52.212;5.496;2023-02-15T13:20:54;42.80;;;23.33;;
69629;SDS011;56857;52.212;5.496;2023-02-15T13:23:24;43.92;;;23.55;;
69629;SDS011;56857;52.212;5.496;2023-02-15T13:25:52;42.00;;;23.30;;
69629;SDS011;56857;52.212;5.496;2023-02-15T13:28:22;42.78;;;23.55;;
69629;SDS011;56857;52.212;5.496;2023-02-15T13:30:52;43.50;;;23.95;;
69629;SDS011;56857;52.212;5.496;2023-02-15T13:33:30;43.65;;;23.60;;
69629;SDS011;56857;52.212;5.496;2023-02-15T13:38:41;44.03;;;23.80;;
69629;SDS011;56857;52.212;5.496;2023-02-15T13:41:16;44.58;;;24.17;;
69629;SDS011;56857;52.212;5.496;2023-02-15T13:43:52;44.25;;;24.92;;
69629;SDS011;56857;52.212;5.496;2023-02-15T13:46:47;44.33;;;25.40;;
69629;SDS011;56857;52.212;5.496;2023-02-15T14:00:20;50.33;;;26.67;;
69629;SDS011;56857;52.212;5.496;2023-02-15T14:11:15;50.03;;;26.13;;
69629;SDS011;56857;52.212;5.496;2023-02-15T14:21:31;50.92;;;25.73;;
69629;SDS011;56857;52.212;5.496;2023-02-15T14:29:32;47.42;;;25.42;;
69629;SDS011;56857;52.212;5.496;2023-02-15T14:35:13;46.20;;;25.10;;
69629;SDS011;56857;52.212;5.496;2023-02-15T14:37:42;47.55;;;26.30;;
69629;SDS011;56857;52.212;5.496;2023-02-15T14:43:02;44.40;;;25.65;;
69629;SDS011;56857;52.212;5.496;2023-02-15T14:45:40;45.35;;;25.98;;
69629;SDS011;56857;52.212;5.496;2023-02-15T14:48:31;44.20;;;26.17;;
69629;SDS011;56857;52.212;5.496;2023-02-15T14:51:03;48.47;;;24.88;;
69629;SDS011;56857;52.212;5.496;2023-02-15T14:58:32;45.60;;;26.33;;
69629;SDS011;56857;52.212;5.496;2023-02-15T15:01:07;48.22;;;26.90;;
69629;SDS011;56857;52.212;5.496;2023-02-15T15:03:35;54.63;;;26.50;;
69629;SDS011;56857;52.212;5.496;2023-02-15T15:06:02;44.42;;;26.63;;
69629;SDS011;56857;52.212;5.496;2023-02-15T15:08:33;47.50;;;25.75;;
69629;SDS011;56857;52.212;5.496;2023-02-15T15:13:56;54.85;;;27.50;;
69629;SDS011;56857;52.212;5.496;2023-02-15T15:17:08;53.08;;;28.60;;
69629;SDS011;56857;52.212;5.496;2023-02-15T15:19:12;49.15;;;26.35;;
69629;SDS011;56857;52.212;5.496;2023-02-15T15:22:22;54.17;;;29.17;;
69629;SDS011;56857;52.212;5.496;2023-02-15T15:35:28;50.53;;;27.17;;
69629;SDS011;56857;52.212;5.496;2023-02-15T15:48:40;46.97;;;27.42;;
69629;SDS011;56857;52.212;5.496;2023-02-15T15:51:14;54.25;;;28.75;;
69629;SDS011;56857;52.212;5.496;2023-02-15T15:53:46;54.75;;;28.73;;
69629;SDS011;56857;52.212;5.496;2023-02-15T15:56:17;53.28;;;28.38;;
69629;SDS011;56857;52.212;5.496;2023-02-15T15:58:48;47.15;;;28.13;;
69629;SDS011;56857;52.212;5.496;2023-02-15T16:01:23;50.95;;;29.02;;
69629;SDS011;56857;52.212;5.496;2023-02-15T16:03:53;57.25;;;29.02;;
69629;SDS011;56857;52.212;5.496;2023-02-15T16:06:41;51.10;;;27.17;;
69629;SDS011;56857;52.212;5.496;2023-02-15T16:11:40;53.25;;;29.50;;
69629;SDS011;56857;52.212;5.496;2023-02-15T16:14:12;50.47;;;29.05;;
69629;SDS011;56857;52.212;5.496;2023-02-15T16:16:40;51.60;;;28.35;;
69629;SDS011;56857;52.212;5.496;2023-02-15T16:19:16;57.30;;;31.17;;
69629;SDS011;56857;52.212;5.496;2023-02-15T16:21:46;58.28;;;29.98;;
69629;SDS011;56857;52.212;5.496;2023-02-15T16:24:20;54.38;;;27.98;;
69629;SDS011;56857;52.212;5.496;2023-02-15T16:26:58;52.13;;;28.85;;
69629;SDS011;56857;52.212;5.496;2023-02-15T16:29:38;49.95;;;27.65;;
69629;SDS011;56857;52.212;5.496;2023-02-15T16:32:05;54.78;;;28.83;;
69629;SDS011;56857;52.212;5.496;2023-02-15T16:34:50;51.33;;;25.00;;
69629;SDS011;56857;52.212;5.496;2023-02-15T16:37:34;48.63;;;26.73;;
69629;SDS011;56857;52.212;5.496;2023-02-15T16:40:00;55.53;;;26.70;;
69629;SDS011;56857;52.212;5.496;2023-02-15T16:42:26;47.30;;;26.40;;
69629;SDS011;56857;52.212;5.496;2023-02-15T16:44:55;58.17;;;28.38;;
69629;SDS011;56857;52.212;5.496;2023-02-15T16:47:43;49.97;;;25.98;;
69629;SDS011;56857;52.212;5.496;2023-02-15T16:50:18;55.28;;;30.35;;
69629;SDS011;56857;52.212;5.496;2023-02-15T16:52:54;53.47;;;27.92;;
69629;SDS011;56857;52.212;5.496;2023-02-15T16:55:22;49.28;;;25.98;;
69629;SDS011;56857;52.212;5.496;2023-02-15T16:57:50;51.03;;;27.40;;
69629;SDS011;56857;52.212;5.496;2023-02-15T17:00:21;51.35;;;27.63;;
69629;SDS011;56857;52.212;5.496;2023-02-15T17:02:53;53.33;;;28.33;;
69629;SDS011;56857;52.212;5.496;2023-02-15T17:05:23;52.83;;;29.88;;
69629;SDS011;56857;52.212;5.496;2023-02-15T17:13:23;58.47;;;29.77;;
69629;SDS011;56857;52.212;5.496;2023-02-15T17:18:34;55.92;;;29.00;;
69629;SDS011;56857;52.212;5.496;2023-02-15T17:21:16;46.22;;;26.05;;
69629;SDS011;56857;52.212;5.496;2023-02-15T17:23:44;51.05;;;28.25;;
69629;SDS011;56857;52.212;5.496;2023-02-15T17:26:15;54.83;;;29.58;;
69629;SDS011;56857;52.212;5.496;2023-02-15T17:28:52;55.78;;;29.80;;
69629;SDS011;56857;52.212;5.496;2023-02-15T17:31:24;50.80;;;28.63;;
69629;SDS011;56857;52.212;5.496;2023-02-15T17:33:51;58.42;;;30.92;;
69629;SDS011;56857;52.212;5.496;2023-02-15T17:41:43;57.88;;;28.95;;
69629;SDS011;56857;52.212;5.496;2023-02-15T17:44:08;58.72;;;30.50;;
69629;SDS011;56857;52.212;5.496;2023-02-15T17:46:36;57.97;;;29.80;;
69629;SDS011;56857;52.212;5.496;2023-02-15T17:49:02;59.03;;;29.85;;
69629;SDS011;56857;52.212;5.496;2023-02-15T17:51:29;64.50;;;28.58;;
69629;SDS011;56857;52.212;5.496;2023-02-15T17:53:56;59.03;;;29.02;;
69629;SDS011;56857;52.212;5.496;2023-02-15T17:56:21;56.55;;;28.83;;
69629;SDS011;56857;52.212;5.496;2023-02-15T17:58:47;58.13;;;28.48;;
69629;SDS011;56857;52.212;5.496;2023-02-15T18:01:14;51.03;;;28.65;;
69629;SDS011;56857;52.212;5.496;2023-02-15T18:03:48;55.33;;;29.40;;
69629;SDS011;56857;52.212;5.496;2023-02-15T18:06:14;47.10;;;26.70;;
69629;SDS011;56857;52.212;5.496;2023-02-15T18:08:40;50.03;;;28.73;;
69629;SDS011;56857;52.212;5.496;2023-02-15T18:11:07;57.70;;;29.33;;
69629;SDS011;56857;52.212;5.496;2023-02-15T18:13:34;54.33;;;29.77;;